sensor_id;sensor_type;location;lat;lon;timestamp;P1;durP1;ratioP1;P2;durP2;ratioP2
67930;SDS011;63902;52.000;5.954;2023-07-30T00:00:17;4.80;;;2.00;;
67930;SDS011;63902;52.000;5.954;2023-07-30T00:01:18;7.65;;;2.00;;
67930;SDS011;63902;52.000;5.954;2023-07-30T00:02:19;6.28;;;1.92;;
67930;SDS011;63902;52.000;5.954;2023-07-30T00:03:20;4.97;;;2.13;;
67930;SDS011;63902;52.000;5.954;2023-07-30T00:04:20;11.25;;;2.00;;
67930;SDS011;63902;52.000;5.954;2023-07-30T00:05:21;6.57;;;2.55;;
67930;SDS011;63902;52.000;5.954;2023-07-30T00:06:21;6.85;;;2.70;;
67930;SDS011;63902;52.000;5.954;2023-07-30T00:07:22;8.32;;;2.03;;
67930;SDS011;63902;52.000;5.954;2023-07-30T00:08:22;8.82;;;2.10;;
67930;SDS011;63902;52.000;5.954;2023-07-30T00:09:23;6.80;;;2.33;;
67930;SDS011;63902;52.000;5.954;2023-07-30T00:10:24;4.03;;;2.38;;
67930;SDS011;63902;52.000;5.954;2023-07-30T00:11:24;7.53;;;2.20;;
67930;SDS011;63902;52.000;5.954;2023-07-30T00:12:25;5.75;;;2.20;;
67930;SDS011;63902;52.000;5.954;2023-07-30T00:13:25;10.10;;;2.20;;
67930;SDS011;63902;52.000;5.954;2023-07-30T00:14:26;6.72;;;2.03;;
67930;SDS011;63902;52.000;5.954;2023-07-30T00:15:26;7.05;;;2.08;;
67930;SDS011;63902;52.000;5.954;2023-07-30T00:16:29;9.38;;;2.10;;
67930;SDS011;63902;52.000;5.954;2023-07-30T00:17:29;6.53;;;2.38;;
67930;SDS011;63902;52.000;5.954;2023-07-30T00:18:30;8.55;;;2.45;;
67930;SDS011;63902;52.000;5.954;2023-07-30T00:19:30;4.85;;;1.92;;
67930;SDS011;63902;52.000;5.954;2023-07-30T00:20:31;5.90;;;2.17;;
67930;SDS011;63902;52.000;5.954;2023-07-30T00:21:31;8.23;;;2.40;;
67930;SDS011;63902;52.000;5.954;2023-07-30T00:22:32;7.95;;;2.42;;
67930;SDS011;63902;52.000;5.954;2023-07-30T00:23:32;8.55;;;2.25;;
67930;SDS011;63902;52.000;5.954;2023-07-30T00:24:33;6.20;;;2.47;;
67930;SDS011;63902;52.000;5.954;2023-07-30T00:25:33;7.30;;;2.35;;
67930;SDS011;63902;52.000;5.954;2023-07-30T00:26:34;6.93;;;2.75;;
67930;SDS011;63902;52.000;5.954;2023-07-30T00:27:34;8.02;;;2.35;;
67930;SDS011;63902;52.000;5.954;2023-07-30T00:28:35;7.05;;;2.55;;
67930;SDS011;63902;52.000;5.954;2023-07-30T00:29:35;3.58;;;2.38;;
67930;SDS011;63902;52.000;5.954;2023-07-30T00:30:36;4.57;;;2.35;;
67930;SDS011;63902;52.000;5.954;2023-07-30T00:31:38;10.77;;;2.60;;
67930;SDS011;63902;52.000;5.954;2023-07-30T00:32:38;11.48;;;2.80;;
67930;SDS011;63902;52.000;5.954;2023-07-30T00:33:39;7.55;;;2.35;;
67930;SDS011;63902;52.000;5.954;2023-07-30T00:34:39;6.90;;;2.50;;
67930;SDS011;63902;52.000;5.954;2023-07-30T00:35:40;7.25;;;2.15;;
67930;SDS011;63902;52.000;5.954;2023-07-30T00:36:40;6.60;;;2.15;;
67930;SDS011;63902;52.000;5.954;2023-07-30T00:37:41;5.32;;;2.50;;
67930;SDS011;63902;52.000;5.954;2023-07-30T00:38:42;8.82;;;2.17;;
67930;SDS011;63902;52.000;5.954;2023-07-30T00:39:42;4.70;;;2.33;;
67930;SDS011;63902;52.000;5.954;2023-07-30T00:40:43;7.80;;;2.42;;
67930;SDS011;63902;52.000;5.954;2023-07-30T00:41:43;7.57;;;2.40;;
67930;SDS011;63902;52.000;5.954;2023-07-30T00:42:44;7.18;;;2.25;;
67930;SDS011;63902;52.000;5.954;2023-07-30T00:43:44;6.95;;;1.92;;
67930;SDS011;63902;52.000;5.954;2023-07-30T00:44:44;6.60;;;2.50;;
67930;SDS011;63902;52.000;5.954;2023-07-30T00:45:45;8.38;;;2.60;;
67930;SDS011;63902;52.000;5.954;2023-07-30T00:46:47;7.47;;;2.30;;
67930;SDS011;63902;52.000;5.954;2023-07-30T00:47:47;5.70;;;2.15;;
67930;SDS011;63902;52.000;5.954;2023-07-30T00:48:48;7.57;;;2.10;;
67930;SDS011;63902;52.000;5.954;2023-07-30T00:49:49;6.80;;;2.40;;
67930;SDS011;63902;52.000;5.954;2023-07-30T00:50:50;8.18;;;2.70;;
67930;SDS011;63902;52.000;5.954;2023-07-30T00:51:50;6.97;;;2.30;;
67930;SDS011;63902;52.000;5.954;2023-07-30T00:52:51;5.45;;;2.40;;
67930;SDS011;63902;52.000;5.954;2023-07-30T00:53:52;4.40;;;2.42;;
67930;SDS011;63902;52.000;5.954;2023-07-30T00:54:52;5.97;;;2.20;;
67930;SDS011;63902;52.000;5.954;2023-07-30T00:55:54;7.38;;;2.40;;
67930;SDS011;63902;52.000;5.954;2023-07-30T00:56:54;7.15;;;2.45;;
67930;SDS011;63902;52.000;5.954;2023-07-30T00:57:55;10.63;;;2.63;;
67930;SDS011;63902;52.000;5.954;2023-07-30T00:58:56;6.72;;;2.28;;
67930;SDS011;63902;52.000;5.954;2023-07-30T00:59:57;12.75;;;2.45;;
67930;SDS011;63902;52.000;5.954;2023-07-30T01:00:58;5.65;;;2.22;;
67930;SDS011;63902;52.000;5.954;2023-07-30T01:02:00;8.88;;;2.35;;
67930;SDS011;63902;52.000;5.954;2023-07-30T01:03:02;7.47;;;2.25;;
67930;SDS011;63902;52.000;5.954;2023-07-30T01:04:03;5.53;;;2.17;;
67930;SDS011;63902;52.000;5.954;2023-07-30T01:05:04;11.60;;;2.58;;
67930;SDS011;63902;52.000;5.954;2023-07-30T01:06:05;10.93;;;2.33;;
67930;SDS011;63902;52.000;5.954;2023-07-30T01:07:05;8.13;;;2.55;;
67930;SDS011;63902;52.000;5.954;2023-07-30T01:08:06;7.43;;;2.55;;
67930;SDS011;63902;52.000;5.954;2023-07-30T01:09:07;10.25;;;2.10;;
67930;SDS011;63902;52.000;5.954;2023-07-30T01:10:07;7.50;;;1.90;;
67930;SDS011;63902;52.000;5.954;2023-07-30T01:11:08;5.40;;;2.13;;
67930;SDS011;63902;52.000;5.954;2023-07-30T01:12:10;6.72;;;2.13;;
67930;SDS011;63902;52.000;5.954;2023-07-30T01:13:11;13.13;;;2.60;;
67930;SDS011;63902;52.000;5.954;2023-07-30T01:14:13;10.73;;;2.53;;
67930;SDS011;63902;52.000;5.954;2023-07-30T01:15:14;9.32;;;2.30;;
67930;SDS011;63902;52.000;5.954;2023-07-30T01:16:16;6.70;;;2.30;;
67930;SDS011;63902;52.000;5.954;2023-07-30T01:17:18;9.38;;;2.28;;
67930;SDS011;63902;52.000;5.954;2023-07-30T01:18:18;6.15;;;2.45;;
67930;SDS011;63902;52.000;5.954;2023-07-30T01:19:19;11.63;;;2.50;;
67930;SDS011;63902;52.000;5.954;2023-07-30T01:20:20;5.60;;;2.10;;
67930;SDS011;63902;52.000;5.954;2023-07-30T01:21:22;8.15;;;2.30;;
67930;SDS011;63902;52.000;5.954;2023-07-30T01:22:23;6.07;;;2.50;;
67930;SDS011;63902;52.000;5.954;2023-07-30T01:23:23;5.30;;;2.38;;
67930;SDS011;63902;52.000;5.954;2023-07-30T01:24:24;9.60;;;2.95;;
67930;SDS011;63902;52.000;5.954;2023-07-30T01:25:25;10.68;;;2.53;;
67930;SDS011;63902;52.000;5.954;2023-07-30T01:26:30;3.63;;;1.92;;
67930;SDS011;63902;52.000;5.954;2023-07-30T01:27:36;9.43;;;2.35;;
67930;SDS011;63902;52.000;5.954;2023-07-30T01:28:39;6.43;;;2.75;;
67930;SDS011;63902;52.000;5.954;2023-07-30T01:29:45;7.80;;;2.33;;
67930;SDS011;63902;52.000;5.954;2023-07-30T01:30:51;5.53;;;2.28;;
67930;SDS011;63902;52.000;5.954;2023-07-30T01:31:53;8.02;;;2.13;;
67930;SDS011;63902;52.000;5.954;2023-07-30T01:32:56;6.00;;;2.45;;
67930;SDS011;63902;52.000;5.954;2023-07-30T01:33:58;7.78;;;2.83;;
67930;SDS011;63902;52.000;5.954;2023-07-30T01:35:01;7.07;;;2.30;;
67930;SDS011;63902;52.000;5.954;2023-07-30T01:36:04;5.03;;;2.20;;
67930;SDS011;63902;52.000;5.954;2023-07-30T01:37:09;7.47;;;2.22;;
67930;SDS011;63902;52.000;5.954;2023-07-30T01:38:12;12.20;;;2.90;;
67930;SDS011;63902;52.000;5.954;2023-07-30T01:39:13;7.78;;;2.67;;
67930;SDS011;63902;52.000;5.954;2023-07-30T01:40:15;7.78;;;2.47;;
67930;SDS011;63902;52.000;5.954;2023-07-30T01:41:16;6.18;;;2.30;;
67930;SDS011;63902;52.000;5.954;2023-07-30T01:42:17;10.73;;;2.95;;
67930;SDS011;63902;52.000;5.954;2023-07-30T01:43:17;8.18;;;2.67;;
67930;SDS011;63902;52.000;5.954;2023-07-30T01:44:18;8.13;;;2.75;;
67930;SDS011;63902;52.000;5.954;2023-07-30T01:45:18;11.80;;;2.30;;
67930;SDS011;63902;52.000;5.954;2023-07-30T01:46:19;11.02;;;2.58;;
67930;SDS011;63902;52.000;5.954;2023-07-30T01:47:19;15.07;;;2.70;;
67930;SDS011;63902;52.000;5.954;2023-07-30T01:48:20;5.03;;;2.05;;
67930;SDS011;63902;52.000;5.954;2023-07-30T01:49:20;7.25;;;2.47;;
67930;SDS011;63902;52.000;5.954;2023-07-30T01:50:21;9.52;;;2.72;;
67930;SDS011;63902;52.000;5.954;2023-07-30T01:51:21;13.40;;;3.03;;
67930;SDS011;63902;52.000;5.954;2023-07-30T01:52:23;9.90;;;2.67;;
67930;SDS011;63902;52.000;5.954;2023-07-30T01:53:24;9.15;;;2.63;;
67930;SDS011;63902;52.000;5.954;2023-07-30T01:54:24;6.65;;;2.47;;
67930;SDS011;63902;52.000;5.954;2023-07-30T01:55:25;9.32;;;2.50;;
67930;SDS011;63902;52.000;5.954;2023-07-30T01:56:25;5.85;;;2.50;;
67930;SDS011;63902;52.000;5.954;2023-07-30T01:57:26;8.50;;;3.08;;
67930;SDS011;63902;52.000;5.954;2023-07-30T01:58:26;9.30;;;2.95;;
67930;SDS011;63902;52.000;5.954;2023-07-30T01:59:27;7.25;;;2.47;;
67930;SDS011;63902;52.000;5.954;2023-07-30T02:00:28;12.23;;;3.00;;
67930;SDS011;63902;52.000;5.954;2023-07-30T02:01:28;6.15;;;2.65;;
67930;SDS011;63902;52.000;5.954;2023-07-30T02:02:29;5.50;;;2.58;;
67930;SDS011;63902;52.000;5.954;2023-07-30T02:03:29;9.55;;;2.70;;
67930;SDS011;63902;52.000;5.954;2023-07-30T02:04:30;6.93;;;2.40;;
67930;SDS011;63902;52.000;5.954;2023-07-30T02:05:30;6.60;;;2.80;;
67930;SDS011;63902;52.000;5.954;2023-07-30T02:06:31;12.18;;;2.65;;
67930;SDS011;63902;52.000;5.954;2023-07-30T02:07:33;8.57;;;2.75;;
67930;SDS011;63902;52.000;5.954;2023-07-30T02:08:33;14.90;;;2.95;;
67930;SDS011;63902;52.000;5.954;2023-07-30T02:09:34;8.05;;;2.83;;
67930;SDS011;63902;52.000;5.954;2023-07-30T02:10:34;6.55;;;2.70;;
67930;SDS011;63902;52.000;5.954;2023-07-30T02:11:35;11.15;;;2.85;;
67930;SDS011;63902;52.000;5.954;2023-07-30T02:12:35;11.18;;;2.83;;
67930;SDS011;63902;52.000;5.954;2023-07-30T02:13:36;8.38;;;2.75;;
67930;SDS011;63902;52.000;5.954;2023-07-30T02:14:36;9.13;;;2.83;;
67930;SDS011;63902;52.000;5.954;2023-07-30T02:15:39;9.75;;;2.70;;
67930;SDS011;63902;52.000;5.954;2023-07-30T02:16:40;11.00;;;3.38;;
67930;SDS011;63902;52.000;5.954;2023-07-30T02:17:41;8.70;;;2.50;;
67930;SDS011;63902;52.000;5.954;2023-07-30T02:18:41;8.65;;;3.00;;
67930;SDS011;63902;52.000;5.954;2023-07-30T02:19:42;7.38;;;2.30;;
67930;SDS011;63902;52.000;5.954;2023-07-30T02:20:42;16.27;;;2.63;;
67930;SDS011;63902;52.000;5.954;2023-07-30T02:21:43;8.18;;;2.75;;
67930;SDS011;63902;52.000;5.954;2023-07-30T02:22:45;10.75;;;2.55;;
67930;SDS011;63902;52.000;5.954;2023-07-30T02:23:45;5.95;;;2.53;;
67930;SDS011;63902;52.000;5.954;2023-07-30T02:24:46;6.63;;;2.65;;
67930;SDS011;63902;52.000;5.954;2023-07-30T02:25:46;8.50;;;2.75;;
67930;SDS011;63902;52.000;5.954;2023-07-30T02:26:47;8.68;;;2.95;;
67930;SDS011;63902;52.000;5.954;2023-07-30T02:27:47;13.52;;;3.17;;
67930;SDS011;63902;52.000;5.954;2023-07-30T02:28:48;9.52;;;3.78;;
67930;SDS011;63902;52.000;5.954;2023-07-30T02:29:48;12.15;;;3.20;;
67930;SDS011;63902;52.000;5.954;2023-07-30T02:30:49;8.90;;;2.88;;
67930;SDS011;63902;52.000;5.954;2023-07-30T02:31:49;5.72;;;2.50;;
67930;SDS011;63902;52.000;5.954;2023-07-30T02:32:50;11.10;;;3.00;;
67930;SDS011;63902;52.000;5.954;2023-07-30T02:33:50;7.45;;;2.78;;
67930;SDS011;63902;52.000;5.954;2023-07-30T02:34:51;11.55;;;3.10;;
67930;SDS011;63902;52.000;5.954;2023-07-30T02:35:52;7.03;;;2.80;;
67930;SDS011;63902;52.000;5.954;2023-07-30T02:36:52;6.40;;;2.55;;
67930;SDS011;63902;52.000;5.954;2023-07-30T02:37:54;10.35;;;3.20;;
67930;SDS011;63902;52.000;5.954;2023-07-30T02:38:55;6.30;;;2.55;;
67930;SDS011;63902;52.000;5.954;2023-07-30T02:39:55;10.38;;;3.03;;
67930;SDS011;63902;52.000;5.954;2023-07-30T02:40:56;7.13;;;2.60;;
67930;SDS011;63902;52.000;5.954;2023-07-30T02:41:56;15.27;;;3.13;;
67930;SDS011;63902;52.000;5.954;2023-07-30T02:42:57;8.93;;;2.70;;
67930;SDS011;63902;52.000;5.954;2023-07-30T02:43:57;10.15;;;3.08;;
67930;SDS011;63902;52.000;5.954;2023-07-30T02:44:58;10.93;;;3.10;;
67930;SDS011;63902;52.000;5.954;2023-07-30T02:45:58;8.25;;;2.70;;
67930;SDS011;63902;52.000;5.954;2023-07-30T02:47:00;9.90;;;2.97;;
67930;SDS011;63902;52.000;5.954;2023-07-30T02:48:00;12.38;;;3.05;;
67930;SDS011;63902;52.000;5.954;2023-07-30T02:49:01;10.05;;;2.47;;
67930;SDS011;63902;52.000;5.954;2023-07-30T02:50:01;11.23;;;2.95;;
67930;SDS011;63902;52.000;5.954;2023-07-30T02:51:02;8.45;;;3.20;;
67930;SDS011;63902;52.000;5.954;2023-07-30T02:52:03;11.20;;;3.95;;
67930;SDS011;63902;52.000;5.954;2023-07-30T02:53:05;10.35;;;2.80;;
67930;SDS011;63902;52.000;5.954;2023-07-30T02:54:06;10.27;;;3.00;;
67930;SDS011;63902;52.000;5.954;2023-07-30T02:55:08;7.45;;;2.60;;
67930;SDS011;63902;52.000;5.954;2023-07-30T02:56:08;10.50;;;3.22;;
67930;SDS011;63902;52.000;5.954;2023-07-30T02:57:09;8.65;;;3.45;;
67930;SDS011;63902;52.000;5.954;2023-07-30T02:58:09;12.85;;;2.70;;
67930;SDS011;63902;52.000;5.954;2023-07-30T02:59:10;10.45;;;3.20;;
67930;SDS011;63902;52.000;5.954;2023-07-30T03:00:11;13.82;;;3.40;;
67930;SDS011;63902;52.000;5.954;2023-07-30T03:01:11;6.47;;;2.70;;
67930;SDS011;63902;52.000;5.954;2023-07-30T03:02:12;14.20;;;3.30;;
67930;SDS011;63902;52.000;5.954;2023-07-30T03:03:12;13.80;;;3.53;;
67930;SDS011;63902;52.000;5.954;2023-07-30T03:04:13;12.90;;;3.33;;
67930;SDS011;63902;52.000;5.954;2023-07-30T03:05:14;10.32;;;2.90;;
67930;SDS011;63902;52.000;5.954;2023-07-30T03:06:14;14.13;;;3.00;;
67930;SDS011;63902;52.000;5.954;2023-07-30T03:07:15;7.38;;;3.20;;
67930;SDS011;63902;52.000;5.954;2023-07-30T03:08:17;16.15;;;3.33;;
67930;SDS011;63902;52.000;5.954;2023-07-30T03:09:17;9.05;;;3.05;;
67930;SDS011;63902;52.000;5.954;2023-07-30T03:10:18;15.20;;;3.10;;
67930;SDS011;63902;52.000;5.954;2023-07-30T03:11:18;14.63;;;3.75;;
67930;SDS011;63902;52.000;5.954;2023-07-30T03:12:19;13.18;;;3.10;;
67930;SDS011;63902;52.000;5.954;2023-07-30T03:13:20;21.00;;;3.58;;
67930;SDS011;63902;52.000;5.954;2023-07-30T03:14:20;8.15;;;3.30;;
67930;SDS011;63902;52.000;5.954;2023-07-30T03:15:21;10.85;;;3.45;;
67930;SDS011;63902;52.000;5.954;2023-07-30T03:16:21;9.10;;;3.47;;
67930;SDS011;63902;52.000;5.954;2023-07-30T03:17:22;11.68;;;3.40;;
67930;SDS011;63902;52.000;5.954;2023-07-30T03:18:22;15.55;;;3.53;;
67930;SDS011;63902;52.000;5.954;2023-07-30T03:19:23;11.43;;;3.58;;
67930;SDS011;63902;52.000;5.954;2023-07-30T03:20:23;15.70;;;3.50;;
67930;SDS011;63902;52.000;5.954;2023-07-30T03:21:24;9.55;;;3.20;;
67930;SDS011;63902;52.000;5.954;2023-07-30T03:22:24;7.47;;;3.13;;
67930;SDS011;63902;52.000;5.954;2023-07-30T03:23:26;10.32;;;3.80;;
67930;SDS011;63902;52.000;5.954;2023-07-30T03:24:27;16.17;;;3.60;;
67930;SDS011;63902;52.000;5.954;2023-07-30T03:25:28;10.50;;;3.55;;
67930;SDS011;63902;52.000;5.954;2023-07-30T03:26:28;8.40;;;3.42;;
67930;SDS011;63902;52.000;5.954;2023-07-30T03:27:29;11.88;;;3.90;;
67930;SDS011;63902;52.000;5.954;2023-07-30T03:28:29;8.50;;;3.55;;
67930;SDS011;63902;52.000;5.954;2023-07-30T03:29:30;13.50;;;3.67;;
67930;SDS011;63902;52.000;5.954;2023-07-30T03:30:30;13.98;;;3.90;;
67930;SDS011;63902;52.000;5.954;2023-07-30T03:31:31;9.38;;;3.65;;
67930;SDS011;63902;52.000;5.954;2023-07-30T03:32:31;10.82;;;3.65;;
67930;SDS011;63902;52.000;5.954;2023-07-30T03:33:32;12.07;;;3.75;;
67930;SDS011;63902;52.000;5.954;2023-07-30T03:34:32;12.98;;;3.50;;
67930;SDS011;63902;52.000;5.954;2023-07-30T03:35:33;18.90;;;4.47;;
67930;SDS011;63902;52.000;5.954;2023-07-30T03:36:33;10.40;;;3.58;;
67930;SDS011;63902;52.000;5.954;2023-07-30T03:37:34;14.50;;;4.00;;
67930;SDS011;63902;52.000;5.954;2023-07-30T03:38:36;9.40;;;3.42;;
67930;SDS011;63902;52.000;5.954;2023-07-30T03:39:36;10.20;;;3.60;;
67930;SDS011;63902;52.000;5.954;2023-07-30T03:40:37;12.82;;;3.90;;
67930;SDS011;63902;52.000;5.954;2023-07-30T03:41:38;12.10;;;3.55;;
67930;SDS011;63902;52.000;5.954;2023-07-30T03:42:38;11.88;;;3.75;;
67930;SDS011;63902;52.000;5.954;2023-07-30T03:43:39;6.22;;;3.08;;
67930;SDS011;63902;52.000;5.954;2023-07-30T03:44:39;11.57;;;4.00;;
67930;SDS011;63902;52.000;5.954;2023-07-30T03:45:40;12.88;;;3.75;;
67930;SDS011;63902;52.000;5.954;2023-07-30T03:46:40;15.10;;;4.13;;
67930;SDS011;63902;52.000;5.954;2023-07-30T03:47:41;15.48;;;3.78;;
67930;SDS011;63902;52.000;5.954;2023-07-30T03:48:41;11.13;;;3.58;;
67930;SDS011;63902;52.000;5.954;2023-07-30T03:49:42;8.30;;;3.80;;
67930;SDS011;63902;52.000;5.954;2023-07-30T03:50:42;13.68;;;4.20;;
67930;SDS011;63902;52.000;5.954;2023-07-30T03:51:43;11.82;;;3.90;;
67930;SDS011;63902;52.000;5.954;2023-07-30T03:52:44;9.55;;;3.50;;
67930;SDS011;63902;52.000;5.954;2023-07-30T03:53:45;10.27;;;3.92;;
67930;SDS011;63902;52.000;5.954;2023-07-30T03:54:46;16.50;;;4.40;;
67930;SDS011;63902;52.000;5.954;2023-07-30T03:55:47;13.52;;;4.47;;
67930;SDS011;63902;52.000;5.954;2023-07-30T03:56:47;11.40;;;4.00;;
67930;SDS011;63902;52.000;5.954;2023-07-30T03:57:48;13.35;;;3.65;;
67930;SDS011;63902;52.000;5.954;2023-07-30T03:58:48;9.18;;;4.30;;
67930;SDS011;63902;52.000;5.954;2023-07-30T03:59:49;15.05;;;4.68;;
67930;SDS011;63902;52.000;5.954;2023-07-30T04:00:49;14.38;;;4.35;;
67930;SDS011;63902;52.000;5.954;2023-07-30T04:01:50;11.73;;;4.80;;
67930;SDS011;63902;52.000;5.954;2023-07-30T04:02:51;20.40;;;4.63;;
67930;SDS011;63902;52.000;5.954;2023-07-30T04:03:51;15.00;;;4.40;;
67930;SDS011;63902;52.000;5.954;2023-07-30T04:04:52;13.07;;;4.10;;
67930;SDS011;63902;52.000;5.954;2023-07-30T04:05:52;13.25;;;4.60;;
67930;SDS011;63902;52.000;5.954;2023-07-30T04:06:53;18.02;;;4.40;;
67930;SDS011;63902;52.000;5.954;2023-07-30T04:07:53;16.20;;;4.15;;
67930;SDS011;63902;52.000;5.954;2023-07-30T04:08:55;15.52;;;4.60;;
67930;SDS011;63902;52.000;5.954;2023-07-30T04:09:56;14.00;;;4.55;;
67930;SDS011;63902;52.000;5.954;2023-07-30T04:10:56;14.25;;;4.65;;
67930;SDS011;63902;52.000;5.954;2023-07-30T04:11:57;11.57;;;4.32;;
67930;SDS011;63902;52.000;5.954;2023-07-30T04:12:58;10.40;;;4.03;;
67930;SDS011;63902;52.000;5.954;2023-07-30T04:13:59;14.75;;;4.15;;
67930;SDS011;63902;52.000;5.954;2023-07-30T04:14:59;27.45;;;5.55;;
67930;SDS011;63902;52.000;5.954;2023-07-30T04:16:00;14.52;;;4.10;;
67930;SDS011;63902;52.000;5.954;2023-07-30T04:17:01;19.42;;;4.90;;
67930;SDS011;63902;52.000;5.954;2023-07-30T04:18:01;12.45;;;4.28;;
67930;SDS011;63902;52.000;5.954;2023-07-30T04:19:02;14.00;;;4.40;;
67930;SDS011;63902;52.000;5.954;2023-07-30T04:20:03;17.23;;;4.47;;
67930;SDS011;63902;52.000;5.954;2023-07-30T04:21:04;11.00;;;4.25;;
67930;SDS011;63902;52.000;5.954;2023-07-30T04:22:05;19.27;;;5.22;;
67930;SDS011;63902;52.000;5.954;2023-07-30T04:23:05;12.07;;;4.45;;
67930;SDS011;63902;52.000;5.954;2023-07-30T04:24:07;16.65;;;4.72;;
67930;SDS011;63902;52.000;5.954;2023-07-30T04:25:08;13.48;;;4.47;;
67930;SDS011;63902;52.000;5.954;2023-07-30T04:26:08;16.77;;;4.60;;
67930;SDS011;63902;52.000;5.954;2023-07-30T04:27:09;15.50;;;4.97;;
67930;SDS011;63902;52.000;5.954;2023-07-30T04:28:09;15.20;;;4.70;;
67930;SDS011;63902;52.000;5.954;2023-07-30T04:29:10;15.98;;;4.65;;
67930;SDS011;63902;52.000;5.954;2023-07-30T04:30:11;14.52;;;4.60;;
67930;SDS011;63902;52.000;5.954;2023-07-30T04:31:12;18.92;;;4.75;;
67930;SDS011;63902;52.000;5.954;2023-07-30T04:32:12;19.67;;;5.47;;
67930;SDS011;63902;52.000;5.954;2023-07-30T04:33:13;12.75;;;4.65;;
67930;SDS011;63902;52.000;5.954;2023-07-30T04:34:13;13.55;;;4.60;;
67930;SDS011;63902;52.000;5.954;2023-07-30T04:35:14;15.45;;;5.13;;
67930;SDS011;63902;52.000;5.954;2023-07-30T04:36:14;18.13;;;4.95;;
67930;SDS011;63902;52.000;5.954;2023-07-30T04:37:15;24.17;;;4.40;;
67930;SDS011;63902;52.000;5.954;2023-07-30T04:38:15;18.60;;;5.28;;
67930;SDS011;63902;52.000;5.954;2023-07-30T04:39:17;13.85;;;4.80;;
67930;SDS011;63902;52.000;5.954;2023-07-30T04:40:18;24.10;;;5.40;;
67930;SDS011;63902;52.000;5.954;2023-07-30T04:41:18;13.07;;;4.93;;
67930;SDS011;63902;52.000;5.954;2023-07-30T04:42:19;21.05;;;5.00;;
67930;SDS011;63902;52.000;5.954;2023-07-30T04:43:19;19.50;;;4.85;;
67930;SDS011;63902;52.000;5.954;2023-07-30T04:44:20;10.77;;;4.38;;
67930;SDS011;63902;52.000;5.954;2023-07-30T04:45:20;19.67;;;5.18;;
67930;SDS011;63902;52.000;5.954;2023-07-30T04:46:21;16.70;;;5.38;;
67930;SDS011;63902;52.000;5.954;2023-07-30T04:47:22;12.60;;;5.70;;
67930;SDS011;63902;52.000;5.954;2023-07-30T04:48:22;15.18;;;5.38;;
67930;SDS011;63902;52.000;5.954;2023-07-30T04:49:23;14.45;;;5.18;;
67930;SDS011;63902;52.000;5.954;2023-07-30T04:50:24;16.30;;;5.20;;
67930;SDS011;63902;52.000;5.954;2023-07-30T04:51:24;13.63;;;4.93;;
67930;SDS011;63902;52.000;5.954;2023-07-30T04:52:25;22.83;;;5.60;;
67930;SDS011;63902;52.000;5.954;2023-07-30T04:53:25;14.40;;;4.90;;
67930;SDS011;63902;52.000;5.954;2023-07-30T04:54:27;23.33;;;5.50;;
67930;SDS011;63902;52.000;5.954;2023-07-30T04:55:28;18.73;;;5.53;;
67930;SDS011;63902;52.000;5.954;2023-07-30T04:56:28;9.57;;;4.90;;
67930;SDS011;63902;52.000;5.954;2023-07-30T04:57:29;16.95;;;5.47;;
67930;SDS011;63902;52.000;5.954;2023-07-30T04:58:29;13.82;;;4.80;;
67930;SDS011;63902;52.000;5.954;2023-07-30T04:59:30;12.55;;;4.75;;
67930;SDS011;63902;52.000;5.954;2023-07-30T05:00:30;12.15;;;5.22;;
67930;SDS011;63902;52.000;5.954;2023-07-30T05:01:31;22.33;;;6.00;;
67930;SDS011;63902;52.000;5.954;2023-07-30T05:02:31;20.73;;;5.30;;
67930;SDS011;63902;52.000;5.954;2023-07-30T05:03:32;20.45;;;5.82;;
67930;SDS011;63902;52.000;5.954;2023-07-30T05:04:32;18.92;;;5.68;;
67930;SDS011;63902;52.000;5.954;2023-07-30T05:05:33;20.05;;;5.50;;
67930;SDS011;63902;52.000;5.954;2023-07-30T05:06:33;15.30;;;5.32;;
67930;SDS011;63902;52.000;5.954;2023-07-30T05:07:34;31.02;;;5.72;;
67930;SDS011;63902;52.000;5.954;2023-07-30T05:08:34;18.23;;;5.47;;
67930;SDS011;63902;52.000;5.954;2023-07-30T05:09:36;17.90;;;5.45;;
67930;SDS011;63902;52.000;5.954;2023-07-30T05:10:37;12.63;;;5.70;;
67930;SDS011;63902;52.000;5.954;2023-07-30T05:11:38;15.85;;;5.28;;
67930;SDS011;63902;52.000;5.954;2023-07-30T05:12:38;24.58;;;6.43;;
67930;SDS011;63902;52.000;5.954;2023-07-30T05:13:39;23.80;;;6.20;;
67930;SDS011;63902;52.000;5.954;2023-07-30T05:14:40;16.92;;;5.88;;
67930;SDS011;63902;52.000;5.954;2023-07-30T05:15:40;14.68;;;4.95;;
67930;SDS011;63902;52.000;5.954;2023-07-30T05:16:41;22.10;;;5.78;;
67930;SDS011;63902;52.000;5.954;2023-07-30T05:17:41;10.18;;;5.05;;
67930;SDS011;63902;52.000;5.954;2023-07-30T05:18:42;19.45;;;5.85;;
67930;SDS011;63902;52.000;5.954;2023-07-30T05:19:42;17.60;;;5.93;;
67930;SDS011;63902;52.000;5.954;2023-07-30T05:20:45;21.55;;;5.95;;
67930;SDS011;63902;52.000;5.954;2023-07-30T05:21:46;20.73;;;6.53;;
67930;SDS011;63902;52.000;5.954;2023-07-30T05:22:46;18.15;;;5.80;;
67930;SDS011;63902;52.000;5.954;2023-07-30T05:23:47;22.02;;;6.25;;
67930;SDS011;63902;52.000;5.954;2023-07-30T05:24:49;17.75;;;5.93;;
67930;SDS011;63902;52.000;5.954;2023-07-30T05:25:49;17.25;;;6.25;;
67930;SDS011;63902;52.000;5.954;2023-07-30T05:26:50;21.92;;;6.10;;
67930;SDS011;63902;52.000;5.954;2023-07-30T05:27:50;19.40;;;5.82;;
67930;SDS011;63902;52.000;5.954;2023-07-30T05:28:51;18.10;;;5.47;;
67930;SDS011;63902;52.000;5.954;2023-07-30T05:29:51;24.83;;;7.13;;
67930;SDS011;63902;52.000;5.954;2023-07-30T05:30:52;17.45;;;5.68;;
67930;SDS011;63902;52.000;5.954;2023-07-30T05:31:52;22.20;;;5.82;;
67930;SDS011;63902;52.000;5.954;2023-07-30T05:32:53;15.68;;;6.05;;
67930;SDS011;63902;52.000;5.954;2023-07-30T05:33:53;24.25;;;7.15;;
67930;SDS011;63902;52.000;5.954;2023-07-30T05:34:54;24.52;;;5.90;;
67930;SDS011;63902;52.000;5.954;2023-07-30T05:35:54;16.35;;;6.13;;
67930;SDS011;63902;52.000;5.954;2023-07-30T05:36:55;19.60;;;6.35;;
67930;SDS011;63902;52.000;5.954;2023-07-30T05:37:55;18.10;;;7.20;;
67930;SDS011;63902;52.000;5.954;2023-07-30T05:38:56;20.48;;;6.00;;
67930;SDS011;63902;52.000;5.954;2023-07-30T05:39:58;15.68;;;5.47;;
67930;SDS011;63902;52.000;5.954;2023-07-30T05:40:58;18.20;;;5.90;;
67930;SDS011;63902;52.000;5.954;2023-07-30T05:41:59;22.40;;;6.88;;
67930;SDS011;63902;52.000;5.954;2023-07-30T05:43:00;21.30;;;6.07;;
67930;SDS011;63902;52.000;5.954;2023-07-30T05:44:00;19.52;;;6.25;;
67930;SDS011;63902;52.000;5.954;2023-07-30T05:45:01;19.60;;;6.45;;
67930;SDS011;63902;52.000;5.954;2023-07-30T05:46:01;18.85;;;6.78;;
67930;SDS011;63902;52.000;5.954;2023-07-30T05:47:02;20.60;;;6.53;;
67930;SDS011;63902;52.000;5.954;2023-07-30T05:48:03;20.95;;;6.18;;
67930;SDS011;63902;52.000;5.954;2023-07-30T05:49:03;26.73;;;7.00;;
67930;SDS011;63902;52.000;5.954;2023-07-30T05:50:04;22.63;;;6.20;;
67930;SDS011;63902;52.000;5.954;2023-07-30T05:51:06;26.90;;;7.43;;
67930;SDS011;63902;52.000;5.954;2023-07-30T05:52:06;24.10;;;7.10;;
67930;SDS011;63902;52.000;5.954;2023-07-30T05:53:07;15.90;;;6.45;;
67930;SDS011;63902;52.000;5.954;2023-07-30T05:54:08;22.05;;;7.78;;
67930;SDS011;63902;52.000;5.954;2023-07-30T05:55:10;20.95;;;6.80;;
67930;SDS011;63902;52.000;5.954;2023-07-30T05:56:10;19.60;;;6.47;;
67930;SDS011;63902;52.000;5.954;2023-07-30T05:57:11;22.80;;;7.38;;
67930;SDS011;63902;52.000;5.954;2023-07-30T05:58:11;27.27;;;7.35;;
67930;SDS011;63902;52.000;5.954;2023-07-30T05:59:12;22.25;;;7.40;;
67930;SDS011;63902;52.000;5.954;2023-07-30T06:00:12;22.00;;;7.63;;
67930;SDS011;63902;52.000;5.954;2023-07-30T06:01:13;22.98;;;6.82;;
67930;SDS011;63902;52.000;5.954;2023-07-30T06:02:15;20.23;;;6.70;;
67930;SDS011;63902;52.000;5.954;2023-07-30T06:03:15;17.67;;;6.75;;